Mitchell, IN

1:08 AM EST on December 05, 2016 (GMT -0500)
Carter Addition | | Change Station

Elev 625 ft 38.74 °N, 86.47 °W | Updated 3 minutes ago

Overcast
Overcast
37.5 °F
Feels Like 34 °F
N
4.9
Wind Variable Wind from SSW
Gusts 7.6 mph

Today
High -- | Low -- °F
--% Chance of Precip.
Yesterday
High -- | Low -- °F
Precip. -- in
Pressure 30.03 in
Visibility 10.0 miles
Clouds Overcast 1200 ft
Windchill 34 °F
Dew Point 24 °F
Humidity 57%
Rainfall 0.00 in
Snow Depth Not available.
7:49 AM 5:24 PM
Waxing Crescent, 28% visible
METAR KBMG 050553Z AUTO 30007KT 10SM OVC012 02/M01 A3001 RMK AO2 SLP167 60000 T00221011 10056 20022 51023
Pressure 30.03 in
Visibility 10.0 miles
Clouds Overcast 1200 ft
Windchill 34 °F
Dew Point 24 °F
Humidity 57%
Rainfall 0.00 in
Snow Depth Not available.
7:49 AM 5:24 PM
Waxing Crescent, 28% visible
METAR KBMG 050553Z AUTO 30007KT 10SM OVC012 02/M01 A3001 RMK AO2 SLP167 60000 T00221011 10056 20022 51023

10-Day Weather Forecast

Almanac

Astronomy

Dec. 05, 2016 Rise Set
Actual Time
Civil Twilight
Nautical Twilight
Astronomical Twilight
Moon
Length of Visible Light
Length of Day
Tomorrow will be .
, % of the Moon is Illuminated

Today's Extremes

State Highs State Lows

Community

WunderPhotos

Upload Photos

1,955,771 photos uploaded!

WunderBlog® & News

Nearby

Air Quality

  Air Quality AQ Index Pollutant
Not available.

Snow Depth

Station Depth Elevation

Earthquake Activity

City Distance Mag. Time & Date
Minimum magnitude displayed is 2.5.

Coastal Water Temperatures

Place Temperature

Stations

Nearby Weather Stations

Station Location Temp. Windchill Dew Point Humidity Wind Precip. Elev Updated Type
                   

Watches & Warnings

There are currently no watches in effect.